Observations for CRANWELL RAF, United Kingdom (EGYD)

EGYD 201650Z AUTO 30013KT 9999 // FEW025/// BKN060/// 19/13 Q1017   
EGYD 201550Z AUTO 30015KT 9999 // FEW038/// BKN048/// 21/14 Q1017   
EGYD 201450Z 26019KT 9999 FEW038 BKN060 23/12 Q1017 BLU NOSIG   
EGYD 201350Z 26018KT 9999 SCT033 SCT050 22/14 Q1016 BLU NOSIG   
EGYD 201250Z 24019KT 9999 BKN028 23/15 Q1016 BLU NOSIG  
EGYD 201150Z 24020KT 9999 FEW024 22/16 Q1016 BLU TEMPO SCT024 WHT   
EGYD 201050Z 24020KT 9999 FEW017 SCT020 BKN035 20/16 Q1017 WHT TEMPO BKN025 BLU 
EGYD 201024Z M M 24022KT 9999 BKN022 OVC034 20/15 Q1017 WHT TEMPO BKN025 BLU
EGYD 201024Z 24022KT 9999 BKN022 OVC034 20/15 Q1017 WHT TEMPO BKN025 BLU
EGYD 200950Z 24024G34KT 9999 FEW024 BKN026 21/15 Q1008 BLU  
EGYD 200914Z 23023KT 9999 SCT026 21/15 Q1016 BLU TEMPO SCT022 WHT
EGYD 200850Z 23022G33KT 9999 SCT023 21/15 Q1016 WHT TEMPO FEW023 WHT
EGYD 200750Z 23021G31KT 9999 SCT020 19/15 Q1016 WHT TEMPO FEW020 BLU
EGYD 200650Z 22020KT 9999 FEW018 19/14 Q1017 BLU TEMPO SCT020 WHT   
EGYD 200550Z 21015KT 9999 FEW014 17/14 Q1017 BLU TEMPO SCT018 WHT   
EGYD 200450Z AUTO 21013KT 9999 // FEW030/// 16/14 Q1017 
EGYD 200350Z AUTO 22014KT 9999 // OVC020/// 17/14 Q1017 
EGYD 200250Z AUTO 22013KT 9999 // BKN021/// 16/14 Q1018 
EGYD 200150Z AUTO 23013KT 9999 // BKN021/// 17/15 Q1018 
EGYD 200050Z AUTO 24012KT 9999 // NCD 16/14 Q1018   
EGYD 192350Z AUTO 24016KT 9999 // NCD 17/15 Q1019   
EGYD 192250Z AUTO 22013KT 9999 // NCD 17/15 Q1019   
EGYD 192150Z AUTO 24011KT 9999 // FEW027/// 18/15 Q1019 
EGYD 192050Z AUTO 22013KT 9999 // NCD 19/15 Q1019   
EGYD 191950Z AUTO 23010KT 9999 // FEW050/// 20/16 Q1019 
EGYD 191850Z AUTO 23013KT 9999 // SCT050/// 22/16 Q1019 
EGYD 191750Z AUTO 25016KT 9999 // FEW028/// 22/16 Q1019 
EGYD 191650Z AUTO 24016KT 9999 // BKN029/// SCT038/// BKN050/// 22/16 Q1019